Time;durP1;ratioP1;P1;durP2;ratioP2;P2;SDS_P1;SDS_P2;PMS_P1;PMS_P2;Temp;Humidity;BMP_temperature;BMP_pressure;BME280_temperature;BME280_humidity;BME280_pressure;Samples;Min_cycle;Max_cycle;Signal;HPM_P1;HPM_P2
2021/07/24 00:00:33;;;;;;;19.23;16.05;;;564.00;2432.00;;;;;;4841978;29;20041;-71
2021/07/24 00:02:59;;;;;;;23.27;17.42;;;564.00;2432.00;;;;;;4840551;29;20482;-71
2021/07/24 00:05:24;;;;;;;19.77;17.05;;;563.90;2432.00;;;;;;4841746;29;20100;-71
2021/07/24 00:07:50;;;;;;;22.42;16.95;;;563.90;2432.00;;;;;;4851014;29;20533;-71
2021/07/24 00:10:16;;;;;;;23.42;16.77;;;564.00;2432.00;;;;;;4844892;29;20459;-71
2021/07/24 00:12:42;;;;;;;18.80;16.67;;;563.90;2432.00;;;;;;4844088;29;20512;-71
2021/07/24 00:15:08;;;;;;;19.48;16.98;;;563.90;2432.00;;;;;;4857824;29;20045;-71
2021/07/24 00:17:33;;;;;;;19.42;16.42;;;563.80;2432.00;;;;;;4844693;29;20041;-71
2021/07/24 00:19:59;;;;;;;19.85;17.73;;;563.60;2432.00;;;;;;4841859;29;20050;-71
2021/07/24 00:22:25;;;;;;;22.27;16.92;;;563.60;2432.00;;;;;;4843830;29;20041;-71
2021/07/24 00:24:50;;;;;;;25.35;18.45;;;563.60;2432.00;;;;;;4840249;29;20030;-71
2021/07/24 00:27:16;;;;;;;19.63;17.55;;;563.60;2432.00;;;;;;4840316;29;20034;-71
2021/07/24 00:29:42;;;;;;;20.58;17.80;;;563.60;2432.00;;;;;;4838651;29;20033;-71
2021/07/24 00:32:08;;;;;;;22.92;17.63;;;563.60;2432.00;;;;;;4841957;29;20505;-71
2021/07/24 00:34:34;;;;;;;26.00;17.60;;;563.50;2432.00;;;;;;4841730;29;20085;-74
2021/07/24 00:36:59;;;;;;;21.25;17.90;;;563.50;2432.00;;;;;;4842305;29;20045;-72
2021/07/24 00:39:26;;;;;;;25.40;18.85;;;563.50;2432.00;;;;;;4841133;29;20030;-72
2021/07/24 00:42:15;;;;;;;19.80;17.67;;;563.50;2432.00;;;;;;4843153;29;20053;-72
2021/07/24 00:44:45;;;;;;;22.48;19.75;;;563.50;2432.00;;;;;;4841631;29;20022;-72
2021/07/24 00:47:15;;;;;;;24.08;19.13;;;563.40;2432.00;;;;;;4842211;29;20026;-72
2021/07/24 00:49:42;;;;;;;23.13;20.13;;;563.20;2432.00;;;;;;4838180;29;20547;-72
2021/07/24 00:52:08;;;;;;;25.38;20.42;;;563.20;2432.00;;;;;;4841779;29;20576;-72
2021/07/24 00:54:34;;;;;;;29.27;19.40;;;538.50;2406.40;;;;;;4841989;29;20034;-72
2021/07/24 00:56:59;;;;;;;22.42;19.67;;;538.50;2406.40;;;;;;4841597;29;20037;-72
2021/07/24 00:59:25;;;;;;;24.58;19.40;;;563.20;2432.00;;;;;;4841887;29;20518;-72
2021/07/24 01:01:52;;;;;;;25.63;18.08;;;563.30;2432.00;;;;;;4844293;29;20034;-72
2021/07/24 01:04:18;;;;;;;24.67;18.75;;;563.30;2432.00;;;;;;4841674;29;20025;-73
2021/07/24 01:06:46;;;;;;;23.48;19.08;;;563.30;2432.00;;;;;;4840448;29;20038;-72
2021/07/24 01:09:12;;;;;;;20.23;17.10;;;563.30;2432.00;;;;;;4841993;29;20026;-72
2021/07/24 01:11:37;;;;;;;24.27;19.38;;;563.30;2432.00;;;;;;4841606;29;20151;-72
2021/07/24 01:14:03;;;;;;;23.33;19.08;;;563.40;2432.00;;;;;;4840625;29;20049;-72
2021/07/24 01:16:29;;;;;;;22.92;19.52;;;563.40;2432.00;;;;;;4844355;29;20030;-73
2021/07/24 01:18:55;;;;;;;22.75;18.77;;;563.40;2432.00;;;;;;4844115;29;20065;-73
2021/07/24 01:21:26;;;;;;;23.23;20.38;;;563.40;2432.00;;;;;;4840513;29;20525;-73
2021/07/24 01:23:52;;;;;;;22.52;18.00;;;563.50;2432.00;;;;;;4843933;29;20029;-72
2021/07/24 01:26:35;;;;;;;21.25;18.23;;;563.50;2432.00;;;;;;4841603;29;20026;-73
2021/07/24 01:29:03;;;;;;;25.33;20.75;;;563.50;2432.00;;;;;;4841386;29;20052;-72
2021/07/24 01:31:29;;;;;;;26.40;19.88;;;563.40;2432.00;;;;;;4839429;29;20074;-73
2021/07/24 01:33:55;;;;;;;22.92;18.95;;;563.30;2432.00;;;;;;4841431;29;20037;-72
2021/07/24 01:36:20;;;;;;;22.52;17.05;;;563.30;2432.00;;;;;;4840289;29;20037;-72
2021/07/24 01:38:46;;;;;;;23.25;18.05;;;563.20;2432.00;;;;;;4838303;29;20097;-73
2021/07/24 01:41:14;;;;;;;20.73;17.83;;;563.20;2432.00;;;;;;4841080;29;20473;-72
2021/07/24 01:43:39;;;;;;;24.33;17.50;;;563.20;2432.00;;;;;;4840268;29;20042;-73
2021/07/24 01:46:06;;;;;;;23.23;19.00;;;563.20;2432.00;;;;;;4839809;29;20034;-72
2021/07/24 01:48:52;;;;;;;22.90;18.42;;;563.20;2432.00;;;;;;4840640;29;20478;-73
2021/07/24 01:54:30;;;;;;;21.00;16.10;;;563.20;2432.00;;;;;;4841995;29;20378;-72
2021/07/24 01:56:56;;;;;;;23.92;17.05;;;563.20;2432.00;;;;;;4841264;29;20030;-72
2021/07/24 01:59:28;;;;;;;21.92;16.80;;;563.20;2432.00;;;;;;4841312;29;20030;-72
2021/07/24 02:01:55;;;;;;;21.35;18.50;;;563.20;2432.00;;;;;;4841365;29;20086;-72
2021/07/24 02:04:23;;;;;;;25.45;19.00;;;563.20;2432.00;;;;;;4841387;29;20113;-72
2021/07/24 02:06:49;;;;;;;23.52;17.83;;;563.20;2432.00;;;;;;4840759;29;20486;-72
2021/07/24 02:09:16;;;;;;;23.98;18.98;;;538.50;2406.40;;;;;;4840826;29;20034;-72
2021/07/24 02:11:44;;;;;;;21.83;16.85;;;538.50;2406.40;;;;;;4840858;29;20053;-72
2021/07/24 02:14:09;;;;;;;21.52;17.23;;;538.50;2406.40;;;;;;4841141;29;20034;-72
2021/07/24 02:16:36;;;;;;;20.52;17.17;;;538.50;2406.40;;;;;;4841337;29;20743;-72
2021/07/24 02:19:02;;;;;;;18.85;15.07;;;538.40;2406.40;;;;;;4836297;29;20045;-72
2021/07/24 02:21:31;;;;;;;18.40;14.32;;;538.40;2406.40;;;;;;4828072;29;20034;-73
2021/07/24 02:23:57;;;;;;;20.35;15.40;;;538.40;2406.40;;;;;;4837225;29;20067;-72
2021/07/24 02:26:23;;;;;;;26.95;17.92;;;538.50;2406.40;;;;;;4825391;29;20031;-72
2021/07/24 02:28:49;;;;;;;20.15;15.45;;;538.40;2406.40;;;;;;4838152;29;20026;-72
2021/07/24 02:31:15;;;;;;;17.63;15.25;;;538.50;2406.40;;;;;;4841121;29;20034;-72
2021/07/24 02:33:40;;;;;;;21.67;15.85;;;538.50;2406.40;;;;;;4841350;29;20026;-72
2021/07/24 02:36:06;;;;;;;21.75;15.55;;;538.40;2406.40;;;;;;4839732;29;20450;-72
2021/07/24 02:38:32;;;;;;;20.70;16.27;;;538.30;2406.40;;;;;;4841238;29;20545;-74
2021/07/24 02:40:58;;;;;;;18.42;14.90;;;538.40;2406.40;;;;;;4840947;29;20060;-73
2021/07/24 02:43:25;;;;;;;18.33;14.30;;;538.30;2406.40;;;;;;4841201;29;20166;-72
2021/07/24 02:45:51;;;;;;;18.25;14.27;;;538.30;2406.40;;;;;;4840873;29;20426;-72
2021/07/24 02:48:17;;;;;;;19.50;15.63;;;538.40;2406.40;;;;;;4839494;29;20049;-72
2021/07/24 02:50:43;;;;;;;18.90;13.93;;;538.30;2406.40;;;;;;4839275;29;20057;-72
2021/07/24 02:53:09;;;;;;;17.00;14.30;;;538.30;2406.40;;;;;;4840160;29;20359;-72
2021/07/24 02:55:35;;;;;;;26.33;15.80;;;538.40;2406.40;;;;;;4838240;29;20026;-72
2021/07/24 02:58:02;;;;;;;18.75;14.43;;;538.40;2406.40;;;;;;4844199;29;20347;-73
2021/07/24 03:00:27;;;;;;;20.55;15.82;;;538.40;2406.40;;;;;;4843284;29;20034;-73
2021/07/24 03:02:53;;;;;;;16.33;13.70;;;538.40;2406.40;;;;;;4837585;29;20026;-73
2021/07/24 03:05:19;;;;;;;17.98;13.25;;;538.50;2406.40;;;;;;4844176;29;20034;-73
2021/07/24 03:07:45;;;;;;;20.65;15.18;;;538.40;2406.40;;;;;;4844071;29;20026;-73
2021/07/24 03:10:10;;;;;;;23.42;16.05;;;538.30;2406.40;;;;;;4844297;29;20029;-73
2021/07/24 03:12:36;;;;;;;19.35;14.20;;;538.30;2406.40;;;;;;4842870;29;20036;-73
2021/07/24 03:15:02;;;;;;;24.17;15.07;;;538.30;2406.40;;;;;;4844101;29;20038;-74
2021/07/24 03:17:29;;;;;;;22.33;15.73;;;538.30;2406.40;;;;;;4843941;29;20029;-73
2021/07/24 03:19:55;;;;;;;21.02;13.93;;;538.20;2406.40;;;;;;4843751;29;20140;-73
2021/07/24 03:22:21;;;;;;;17.70;13.80;;;538.20;2406.40;;;;;;4844922;29;20120;-73
2021/07/24 03:24:46;;;;;;;17.88;14.15;;;538.20;2406.40;;;;;;4842482;29;20098;-74
2021/07/24 03:27:17;;;;;;;22.77;13.85;;;538.20;2406.40;;;;;;4843404;29;20041;-73
2021/07/24 03:29:42;;;;;;;18.98;13.95;;;538.10;2406.40;;;;;;4842491;29;20026;-73
2021/07/24 03:32:08;;;;;;;15.95;13.07;;;538.10;2406.40;;;;;;4843086;29;20443;-74
2021/07/24 03:34:34;;;;;;;23.02;14.80;;;538.20;2406.40;;;;;;4842530;29;20100;-73
2021/07/24 03:36:59;;;;;;;15.18;12.98;;;538.20;2406.40;;;;;;4843156;29;20026;-73
2021/07/24 03:39:25;;;;;;;15.60;13.25;;;538.20;2406.40;;;;;;4842564;29;20040;-73
2021/07/24 03:41:51;;;;;;;19.02;13.38;;;538.20;2406.40;;;;;;4842911;29;20034;-74
2021/07/24 03:44:16;;;;;;;17.95;12.23;;;538.20;2406.40;;;;;;4842388;29;20061;-73
2021/07/24 03:46:42;;;;;;;20.77;13.93;;;538.30;2406.40;;;;;;4842498;29;20106;-74
2021/07/24 03:49:08;;;;;;;17.77;12.63;;;538.40;2406.40;;;;;;4842815;29;20038;-74
2021/07/24 03:51:34;;;;;;;18.48;13.88;;;538.50;2406.40;;;;;;4842533;29;20466;-73
2021/07/24 03:53:59;;;;;;;17.48;12.40;;;538.50;2406.40;;;;;;4842977;29;20398;-74
2021/07/24 03:56:25;;;;;;;16.15;12.70;;;563.20;2432.00;;;;;;4842192;29;20034;-73
2021/07/24 03:58:52;;;;;;;19.15;14.52;;;563.20;2432.00;;;;;;4842797;29;20505;-74
2021/07/24 04:01:20;;;;;;;17.95;13.52;;;563.20;2432.00;;;;;;4840853;29;20026;-73
2021/07/24 04:03:46;;;;;;;19.70;14.88;;;563.30;2432.00;;;;;;4839841;29;20033;-73
2021/07/24 04:06:25;;;;;;;17.95;14.13;;;563.40;2432.00;;;;;;4841719;29;20026;-74
2021/07/24 04:08:54;;;;;;;23.58;16.15;;;563.50;2432.00;;;;;;4839321;29;20057;-75
2021/07/24 04:11:21;;;;;;;17.70;14.95;;;563.50;2432.00;;;;;;4838259;29;20120;-74
2021/07/24 04:13:48;;;;;;;22.58;17.10;;;563.70;2432.00;;;;;;4840804;29;20041;-74
2021/07/24 04:16:14;;;;;;;27.38;16.00;;;563.70;2432.00;;;;;;4832603;29;20046;-74
2021/07/24 04:18:41;;;;;;;24.80;15.73;;;563.70;2432.00;;;;;;4844229;29;20038;-75
2021/07/24 04:21:06;;;;;;;23.25;15.50;;;563.80;2432.00;;;;;;4829128;29;20062;-74
2021/07/24 04:23:32;;;;;;;23.17;15.43;;;564.00;2432.00;;;;;;4840560;29;20110;-75
2021/07/24 04:25:58;;;;;;;19.05;15.50;;;564.10;2432.00;;;;;;4841111;29;20045;-74
2021/07/24 04:28:24;;;;;;;21.38;15.98;;;588.80;2432.00;;;;;;4834650;29;20065;-74
2021/07/24 04:30:50;;;;;;;18.92;14.95;;;588.80;2432.00;;;;;;4841820;29;20134;-75
2021/07/24 04:33:16;;;;;;;24.30;16.08;;;588.90;2432.00;;;;;;4835958;29;20105;-75
2021/07/24 04:35:46;;;;;;;30.77;19.13;;;589.00;2432.00;;;;;;4836067;29;20034;-75
2021/07/24 04:38:13;;;;;;;23.25;17.50;;;589.10;2432.00;;;;;;4837403;29;20022;-75
2021/07/24 04:40:39;;;;;;;29.17;21.05;;;589.30;2432.00;;;;;;4838712;29;20109;-75
2021/07/24 04:43:05;;;;;;;34.00;24.48;;;589.30;2432.00;;;;;;4835265;29;20509;-75
2021/07/24 04:45:31;;;;;;;24.27;19.15;;;589.30;2432.00;;;;;;4836512;29;20042;-75
2021/07/24 04:47:56;;;;;;;32.05;20.15;;;589.60;2432.00;;;;;;4835525;29;20026;-75
2021/07/24 04:50:23;;;;;;;33.25;22.08;;;589.70;2432.00;;;;;;4831608;29;20517;-76
2021/07/24 04:52:49;;;;;;;30.88;19.58;;;614.50;2432.00;;;;;;4840516;29;20117;-75
2021/07/24 04:55:15;;;;;;;26.35;19.77;;;614.60;2432.00;;;;;;4841820;29;20030;-74
2021/07/24 04:57:43;;;;;;;28.38;20.75;;;614.90;2432.00;;;;;;4834709;29;20086;-74
2021/07/24 05:00:11;;;;;;;24.38;18.00;;;615.00;2432.00;;;;;;4825391;29;20034;-75
2021/07/24 05:02:37;;;;;;;20.73;16.73;;;615.10;2432.00;;;;;;4834920;29;20041;-74
2021/07/24 05:05:03;;;;;;;34.22;17.83;;;615.30;2432.00;;;;;;4836681;29;20026;-75
2021/07/24 05:07:31;;;;;;;20.15;16.20;;;640.00;2432.00;;;;;;4836053;29;20063;-75
2021/07/24 05:09:57;;;;;;;21.13;16.15;;;640.10;2432.00;;;;;;4840243;29;20026;-75
2021/07/24 05:12:23;;;;;;;21.33;15.35;;;640.30;2432.00;;;;;;4840967;29;20041;-75
2021/07/24 05:14:48;;;;;;;17.92;13.63;;;640.40;2432.00;;;;;;4840416;29;20375;-75
2021/07/24 05:17:15;;;;;;;19.45;12.77;;;640.50;2432.00;;;;;;4828985;29;20034;-75
2021/07/24 05:19:45;;;;;;;14.95;12.00;;;640.60;2432.00;;;;;;4836932;29;20547;-76
2021/07/24 05:22:13;;;;;;;21.98;14.32;;;640.70;2432.00;;;;;;4840345;29;20120;-75
2021/07/24 05:24:44;;;;;;;22.38;14.18;;;640.70;2432.00;;;;;;4835951;29;20059;-75
2021/07/24 05:27:11;;;;;;;17.23;14.93;;;665.60;2432.00;;;;;;4834982;29;20033;-75
2021/07/24 05:29:37;;;;;;;22.35;15.20;;;665.70;2432.00;;;;;;4832877;29;20053;-75
2021/07/24 05:32:03;;;;;;;23.00;17.05;;;665.80;2432.00;;;;;;4837809;29;20504;-75
2021/07/24 05:34:29;;;;;;;19.83;14.60;;;665.90;2432.00;;;;;;4823190;29;20026;-75
2021/07/24 05:36:55;;;;;;;17.75;14.70;;;666.20;2432.00;;;;;;4823745;29;20401;-75
2021/07/24 05:39:21;;;;;;;21.92;14.65;;;666.10;2432.00;;;;;;4823555;29;20027;-75
2021/07/24 05:41:46;;;;;;;17.50;13.50;;;666.30;2432.00;;;;;;4822865;29;20398;-75
2021/07/24 05:44:13;;;;;;;15.32;12.63;;;666.20;2432.00;;;;;;4826438;29;20207;-75
2021/07/24 05:46:39;;;;;;;15.95;12.45;;;666.50;2432.00;;;;;;4829674;29;20060;-75
2021/07/24 05:49:06;;;;;;;15.00;11.63;;;691.30;2432.00;;;;;;4834433;29;20038;-74
2021/07/24 05:51:31;;;;;;;14.85;12.50;;;691.50;2432.00;;;;;;4821528;29;20083;-75
2021/07/24 05:53:57;;;;;;;15.45;10.93;;;691.70;2432.00;;;;;;4823920;29;20034;-75
2021/07/24 05:56:23;;;;;;;11.95;10.07;;;691.70;2432.00;;;;;;4839501;29;20050;-76
2021/07/24 05:58:49;;;;;;;16.25;12.07;;;692.10;2432.00;;;;;;4833665;29;20489;-75
2021/07/24 06:01:14;;;;;;;14.15;12.48;;;716.80;2432.00;;;;;;4839956;29;20077;-76
2021/07/24 06:03:41;;;;;;;15.15;11.80;;;716.90;2432.00;;;;;;4846428;29;20042;-76
2021/07/24 06:06:06;;;;;;;14.82;10.50;;;717.20;2432.00;;;;;;4839623;29;20426;-76
2021/07/24 06:08:33;;;;;;;19.05;11.93;;;717.20;2432.00;;;;;;4833101;29;20046;-75
2021/07/24 06:11:04;;;;;;;11.52;9.50;;;717.30;2432.00;;;;;;4839341;29;20033;-76
2021/07/24 06:13:30;;;;;;;10.75;8.82;;;717.70;2432.00;;;;;;4838781;29;20402;-75
2021/07/24 06:16:00;;;;;;;13.45;10.18;;;717.70;2380.80;;;;;;4839516;29;20581;-75
2021/07/24 06:18:26;;;;;;;19.20;10.23;;;742.70;2406.40;;;;;;4832493;29;20856;-75
2021/07/24 06:20:52;;;;;;;14.70;10.57;;;743.00;2355.20;;;;;;4826527;29;20141;-75
2021/07/24 06:23:19;;;;;;;14.50;9.73;;;743.10;2380.80;;;;;;4831510;29;20040;-75
2021/07/24 06:25:46;;;;;;;15.63;11.07;;;743.10;2355.20;;;;;;4838896;29;20022;-75
2021/07/24 06:28:12;;;;;;;14.20;10.43;;;743.20;2329.60;;;;;;4839680;29;20022;-75
2021/07/24 06:30:38;;;;;;;14.15;9.05;;;768.00;2329.60;;;;;;4842664;29;20026;-74
2021/07/24 06:33:05;;;;;;;14.75;8.45;;;768.00;2304.00;;;;;;4843210;29;20042;-75
2021/07/24 06:35:31;;;;;;;10.48;8.23;;;768.20;2252.80;;;;;;4842612;29;20029;-75
2021/07/24 06:37:57;;;;;;;11.60;7.80;;;768.40;2201.60;;;;;;4843335;29;20026;-75
2021/07/24 06:40:23;;;;;;;11.48;8.48;;;768.70;2150.40;;;;;;4842691;29;20090;-75
2021/07/24 06:42:49;;;;;;;9.98;7.07;;;768.70;2099.20;;;;;;4842969;29;20108;-74
2021/07/24 06:45:14;;;;;;;14.63;7.70;;;768.80;2073.60;;;;;;4843846;29;20516;-75
2021/07/24 06:47:40;;;;;;;11.85;7.32;;;793.60;2099.20;;;;;;4842670;29;20034;-75
2021/07/24 06:50:07;;;;;;;14.45;12.93;;;793.80;2022.40;;;;;;4841805;29;20048;-75
2021/07/24 06:52:33;;;;;;;12.48;9.35;;;793.90;2022.40;;;;;;4841939;29;20045;-75
2021/07/24 06:54:59;;;;;;;11.90;8.40;;;794.20;1945.60;;;;;;4843655;29;20082;-75
2021/07/24 06:57:25;;;;;;;14.00;9.60;;;794.30;1971.20;;;;;;4835253;29;20509;-75
2021/07/24 06:59:51;;;;;;;9.55;6.80;;;819.20;1945.60;;;;;;4852876;29;20041;-75
2021/07/24 07:02:16;;;;;;;10.10;7.60;;;794.30;1868.80;;;;;;4836967;29;20029;-75
2021/07/24 07:04:42;;;;;;;13.65;7.93;;;819.40;1894.40;;;;;;4842465;29;20144;-75
2021/07/24 07:07:08;;;;;;;10.88;8.02;;;819.70;1920.00;;;;;;4843171;29;20033;-75
2021/07/24 07:09:34;;;;;;;9.20;7.10;;;819.70;1894.40;;;;;;4841219;29;20041;-76
2021/07/24 07:12:00;;;;;;;10.43;8.63;;;819.80;1920.00;;;;;;4842906;29;20037;-75
2021/07/24 07:14:26;;;;;;;10.15;7.70;;;819.80;1894.40;;;;;;4842184;29;20026;-74
2021/07/24 07:16:52;;;;;;;10.23;7.63;;;819.70;1894.40;;;;;;4840708;29;20109;-73
2021/07/24 07:19:18;;;;;;;10.95;7.75;;;819.80;1868.80;;;;;;4827910;29;20125;-74
2021/07/24 07:21:45;;;;;;;23.40;20.98;;;844.80;1920.00;;;;;;4833514;29;20038;-73
2021/07/24 07:24:10;;;;;;;13.63;9.48;;;845.20;1894.40;;;;;;4826398;29;20046;-76
2021/07/24 07:26:36;;;;;;;11.20;8.32;;;845.20;1868.80;;;;;;4841586;29;20152;-74
2021/07/24 07:29:05;;;;;;;9.18;7.28;;;819.90;1843.20;;;;;;4842481;29;20475;-74
2021/07/24 07:31:31;;;;;;;14.07;7.45;;;819.80;1843.20;;;;;;4842787;29;20483;-74
2021/07/24 07:33:57;;;;;;;11.73;8.02;;;844.80;1843.20;;;;;;4838222;29;20030;-74
2021/07/24 07:36:23;;;;;;;9.75;7.07;;;845.00;1817.60;;;;;;4842012;29;20040;-74
2021/07/24 07:38:49;;;;;;;10.60;6.40;;;844.80;1792.00;;;;;;4838225;29;20035;-74
2021/07/24 07:41:15;;;;;;;17.60;9.77;;;845.20;1792.00;;;;;;4842476;29;20109;-74
2021/07/24 07:43:41;;;;;;;16.60;9.10;;;845.30;1792.00;;;;;;4842504;29;20058;-74
2021/07/24 07:46:07;;;;;;;11.13;7.72;;;870.40;1740.80;;;;;;4842619;29;20501;-74
2021/07/24 07:48:34;;;;;;;8.75;7.47;;;845.70;1689.60;;;;;;4842345;29;20158;-74
2021/07/24 07:51:00;;;;;;;9.98;6.72;;;845.70;1664.00;;;;;;4842298;29;20482;-74
2021/07/24 07:53:26;;;;;;;12.85;6.97;;;845.50;1664.00;;;;;;4841811;29;20041;-74
2021/07/24 07:55:52;;;;;;;12.35;7.07;;;870.40;1638.40;;;;;;4842169;29;20101;-74
2021/07/24 07:58:17;;;;;;;7.70;5.72;;;845.70;1638.40;;;;;;4842538;29;20652;-74
2021/07/24 08:00:43;;;;;;;9.48;7.03;;;845.50;1638.40;;;;;;4842289;29;20342;-74
2021/07/24 08:03:09;;;;;;;9.80;6.53;;;870.60;1638.40;;;;;;4842543;29;20434;-74
2021/07/24 08:05:35;;;;;;;8.55;5.80;;;870.70;1612.80;;;;;;4840692;29;20546;-73
2021/07/24 08:08:00;;;;;;;9.70;6.22;;;870.70;1587.20;;;;;;4841425;29;20386;-74
2021/07/24 08:10:26;;;;;;;14.30;6.35;;;870.90;1561.60;;;;;;4841905;29;20814;-74
2021/07/24 08:12:52;;;;;;;9.07;5.72;;;871.20;1536.00;;;;;;4841901;29;20079;-74
2021/07/24 08:15:19;;;;;;;9.70;5.95;;;871.30;1536.00;;;;;;4842565;29;20037;-73
2021/07/24 08:17:45;;;;;;;7.65;5.50;;;871.20;1484.80;;;;;;4841654;29;20030;-74
2021/07/24 08:20:11;;;;;;;7.43;5.68;;;896.30;1459.20;;;;;;4842106;29;20102;-74
2021/07/24 08:22:38;;;;;;;8.23;5.97;;;896.30;1433.60;;;;;;4839712;29;20402;-73
2021/07/24 08:25:05;;;;;;;8.02;6.60;;;896.60;1433.60;;;;;;4841072;29;20034;-73
2021/07/24 08:27:34;;;;;;;13.55;6.50;;;896.50;1433.60;;;;;;4841909;29;20044;-73
2021/07/24 08:30:00;;;;;;;7.78;6.15;;;896.40;1459.20;;;;;;4840564;29;20026;-73
2021/07/24 08:32:26;;;;;;;6.65;5.97;;;896.70;1382.40;;;;;;4838813;29;20087;-74
2021/07/24 08:34:52;;;;;;;10.63;6.22;;;921.70;1408.00;;;;;;4840048;29;20112;-73
2021/07/24 08:37:18;;;;;;;8.82;6.10;;;896.60;1408.00;;;;;;4836337;29;20030;-73
2021/07/24 08:39:44;;;;;;;9.85;6.32;;;896.70;1382.40;;;;;;4841172;29;20073;-74
2021/07/24 08:42:27;;;;;;;8.63;6.30;;;921.80;1408.00;;;;;;4840741;29;20061;-73
2021/07/24 08:44:52;;;;;;;8.60;5.75;;;921.60;1433.60;;;;;;4838825;29;20026;-73
2021/07/24 08:47:18;;;;;;;8.38;6.40;;;922.10;1408.00;;;;;;4838045;29;20022;-73
2021/07/24 08:49:44;;;;;;;8.48;6.32;;;922.10;1408.00;;;;;;4840929;29;20427;-74
2021/07/24 08:52:16;;;;;;;9.75;6.47;;;922.30;1382.40;;;;;;4836394;29;20720;-73
2021/07/24 08:54:42;;;;;;;9.40;6.47;;;922.00;1382.40;;;;;;4841775;29;20029;-73
2021/07/24 08:57:08;;;;;;;10.63;7.15;;;921.80;1382.40;;;;;;4840148;29;20116;-73
2021/07/24 08:59:37;;;;;;;7.82;6.65;;;922.10;1408.00;;;;;;4837280;29;20482;-73
2021/07/24 09:02:04;;;;;;;7.40;6.22;;;947.20;1356.80;;;;;;4840148;29;20478;-73
2021/07/24 09:04:31;;;;;;;9.13;6.15;;;947.50;1356.80;;;;;;4838614;29;20453;-73
2021/07/24 09:07:05;;;;;;;11.43;6.47;;;947.70;1356.80;;;;;;4836349;29;20028;-73
2021/07/24 09:09:34;;;;;;;9.38;7.13;;;947.80;1305.60;;;;;;4840763;29;20047;-73
2021/07/24 09:12:00;;;;;;;11.65;6.28;;;947.80;1331.20;;;;;;4836219;29;20045;-74
2021/07/24 09:14:26;;;;;;;8.43;6.30;;;947.60;1331.20;;;;;;4840874;29;20057;-74
2021/07/24 09:16:52;;;;;;;7.03;6.13;;;947.70;1331.20;;;;;;4839688;29;20034;-73
2021/07/24 09:19:19;;;;;;;7.72;6.45;;;947.70;1305.60;;;;;;4835894;29;20582;-73
2021/07/24 09:21:44;;;;;;;8.27;6.35;;;947.40;1305.60;;;;;;4838759;29;20037;-74
2021/07/24 09:24:26;;;;;;;8.88;6.28;;;948.10;1305.60;;;;;;4833336;29;20129;-74
2021/07/24 09:26:52;;;;;;;12.65;6.95;;;972.80;1305.60;;;;;;4837742;29;20018;-73
2021/07/24 09:29:19;;;;;;;8.55;7.63;;;973.30;1280.00;;;;;;4835288;29;20435;-74
2021/07/24 09:31:46;;;;;;;8.75;7.15;;;973.30;1254.40;;;;;;4834581;29;20091;-74
2021/07/24 09:34:14;;;;;;;12.32;8.55;;;973.30;1254.40;;;;;;4832506;29;20041;-74
2021/07/24 09:36:41;;;;;;;9.15;8.25;;;973.10;1254.40;;;;;;4838142;29;20069;-73
2021/07/24 09:39:11;;;;;;;9.38;8.02;;;973.20;1254.40;;;;;;4833225;29;20522;-74
2021/07/24 09:41:47;;;;;;;9.43;8.20;;;973.30;1254.40;;;;;;4840650;29;20029;-73
2021/07/24 09:44:31;;;;;;;9.32;7.75;;;973.30;1228.80;;;;;;4838111;29;20038;-73
2021/07/24 09:46:58;;;;;;;8.18;7.22;;;973.50;1228.80;;;;;;4835067;29;20026;-74
2021/07/24 09:49:41;;;;;;;10.65;8.48;;;973.50;1228.80;;;;;;4837915;29;20497;-73
2021/07/24 09:52:24;;;;;;;9.45;7.93;;;973.60;1228.80;;;;;;4837149;29;20031;-74
2021/07/24 09:54:50;;;;;;;8.70;7.68;;;998.40;1254.40;;;;;;4839657;29;20037;-73
2021/07/24 09:57:32;;;;;;;9.68;8.00;;;998.90;1228.80;;;;;;4836917;29;20030;-73
2021/07/24 10:00:23;;;;;;;8.45;7.65;;;998.90;1228.80;;;;;;4838666;29;20026;-73
2021/07/24 10:03:01;;;;;;;8.27;6.90;;;999.20;1203.20;;;;;;4833544;29;20489;-73
2021/07/24 10:05:38;;;;;;;9.20;7.68;;;999.30;1177.60;;;;;;4837745;29;20036;-72
2021/07/24 10:08:11;;;;;;;10.98;7.53;;;1024.10;1177.60;;;;;;4837530;29;20030;-73
2021/07/24 10:10:39;;;;;;;8.82;7.93;;;999.20;1203.20;;;;;;4838079;29;20042;-73
2021/07/24 10:13:13;;;;;;;8.25;7.45;;;1024.20;1177.60;;;;;;4837596;29;20114;-73
2021/07/24 10:15:44;;;;;;;9.98;7.88;;;999.00;1177.60;;;;;;4836835;29;20090;-73
2021/07/24 10:18:12;;;;;;;8.80;6.53;;;999.30;1177.60;;;;;;4836764;29;20045;-74
2021/07/24 10:20:40;;;;;;;8.68;7.43;;;999.30;1177.60;;;;;;4828370;29;20219;-73
2021/07/24 10:23:06;;;;;;;7.93;7.00;;;1024.10;1177.60;;;;;;4836995;29;20862;-73
2021/07/24 10:25:55;;;;;;;9.20;6.88;;;1024.40;1152.00;;;;;;4833695;29;20034;-73
2021/07/24 10:28:33;;;;;;;8.57;7.68;;;1049.60;1177.60;;;;;;4838311;29;20033;-73
2021/07/24 10:31:08;;;;;;;9.73;7.35;;;1024.40;1152.00;;;;;;4839358;29;20436;-73
2021/07/24 10:33:35;;;;;;;9.73;8.70;;;1024.20;1177.60;;;;;;4837497;29;20091;-73
2021/07/24 10:36:38;;;;;;;11.15;7.30;;;1024.40;1152.00;;;;;;4835959;29;20062;-74
2021/07/24 10:39:06;;;;;;;8.40;7.60;;;1024.40;1126.40;;;;;;4779410;30;20109;-74
2021/07/24 10:41:31;;;;;;;13.10;7.93;;;1024.80;1152.00;;;;;;4779762;30;20035;-73
2021/07/24 10:44:13;;;;;;;10.77;7.47;;;998.90;1152.00;;;;;;4775559;30;20043;-74
2021/07/24 10:46:45;;;;;;;10.68;7.10;;;998.80;1152.00;;;;;;4779552;30;20508;-74
2021/07/24 10:49:37;;;;;;;9.13;7.75;;;1024.10;1126.40;;;;;;4764435;30;20112;-74
2021/07/24 10:52:03;;;;;;;9.98;7.20;;;1024.80;1126.40;;;;;;4765915;30;20039;-73
2021/07/24 10:54:33;;;;;;;9.82;7.82;;;1024.60;1100.80;;;;;;4779142;30;20411;-73
2021/07/24 10:56:59;;;;;;;9.45;7.80;;;1024.70;1100.80;;;;;;4768772;30;20142;-73
2021/07/24 10:59:29;;;;;;;10.85;9.45;;;1024.80;1100.80;;;;;;4777580;30;20074;-73
2021/07/24 11:01:54;;;;;;;12.20;7.93;;;1049.80;1100.80;;;;;;4776975;30;20043;-73
2021/07/24 11:04:35;;;;;;;8.65;7.75;;;1050.20;1075.20;;;;;;4760700;30;20594;-74
2021/07/24 11:07:13;;;;;;;10.38;8.07;;;1050.30;1075.20;;;;;;4778326;30;20157;-73
2021/07/24 11:09:43;;;;;;;8.68;7.78;;;1024.10;1100.80;;;;;;4775364;29;20489;-74
2021/07/24 11:12:14;;;;;;;12.23;7.70;;;1024.90;1100.80;;;;;;4767213;30;20067;-74
2021/07/24 11:14:42;;;;;;;8.25;7.28;;;1024.60;1100.80;;;;;;4792372;29;20371;-73
2021/07/24 11:17:08;;;;;;;9.75;8.25;;;1024.10;1126.40;;;;;;4847091;29;20081;-73
2021/07/24 11:19:49;;;;;;;7.43;6.72;;;1024.50;1100.80;;;;;;4844932;29;20454;-73
2021/07/24 11:22:19;;;;;;;9.95;7.28;;;1024.20;1075.20;;;;;;4840554;29;20033;-74
2021/07/24 11:24:51;;;;;;;9.30;8.23;;;1024.30;1100.80;;;;;;4843248;29;20029;-74
2021/07/24 11:27:30;;;;;;;11.77;9.48;;;1024.60;1075.20;;;;;;4840853;29;20550;-74
2021/07/24 11:30:09;;;;;;;11.85;8.52;;;1024.60;1075.20;;;;;;4845631;29;20029;-74
2021/07/24 11:32:41;;;;;;;10.25;7.65;;;1050.10;1075.20;;;;;;4847132;29;20354;-74
2021/07/24 11:35:07;;;;;;;8.88;7.22;;;1050.30;1049.60;;;;;;4850125;29;20025;-74
2021/07/24 11:37:37;;;;;;;10.55;8.20;;;1049.80;1049.60;;;;;;4850066;29;20383;-74
2021/07/24 11:40:04;;;;;;;8.32;7.40;;;1049.90;1049.60;;;;;;4832810;29;20388;-74
2021/07/24 11:42:30;;;;;;;14.00;10.27;;;1049.80;1049.60;;;;;;4840061;29;20022;-74
2021/07/24 11:44:56;;;;;;;10.40;9.40;;;1050.10;1024.00;;;;;;4843486;29;20038;-74
2021/07/24 11:47:21;;;;;;;11.95;10.70;;;1050.10;1024.00;;;;;;4831841;29;20062;-74
2021/07/24 11:49:47;;;;;;;12.50;10.63;;;1050.30;1024.00;;;;;;4828793;29;20526;-74
2021/07/24 11:52:13;;;;;;;11.90;10.27;;;1075.50;998.40;;;;;;4833582;29;20038;-75
2021/07/24 11:54:38;;;;;;;10.77;9.77;;;1075.60;972.80;;;;;;4842892;29;20041;-74
2021/07/24 11:57:05;;;;;;;12.45;10.02;;;1075.60;998.40;;;;;;4842979;29;20034;-74
2021/07/24 11:59:33;;;;;;;11.23;10.13;;;1075.50;1024.00;;;;;;4842495;29;20026;-74
2021/07/24 12:02:00;;;;;;;12.40;9.27;;;1075.50;998.40;;;;;;4842103;29;20036;-74
2021/07/24 12:04:27;;;;;;;9.82;8.80;;;1050.50;1024.00;;;;;;4840186;29;20031;-74
2021/07/24 12:07:01;;;;;;;10.38;9.38;;;1024.70;1024.00;;;;;;4841556;29;20022;-74
2021/07/24 12:09:29;;;;;;;11.95;10.50;;;1050.40;1049.60;;;;;;4840441;29;20029;-74